首页
METAR-TAF:

METAR-TAF

机场 :

薩爾, 乍得

纬度: 09-09N, 经度: 018-23E, 海拔: 365米

当前天气观测

该预报发布于4小时和52分钟前的17:00 UTC
静风
温度 23°C
湿度 89%
气压 1011 hPa
能见度10公里或以上
少量云层高于2000英尺

METAR: FTTA 231700Z 00000KT 9999 FEW020 23/21 Q1011

时间: 22:52 (21:52 UTC)


TAF: 丢失

超过4000个机场的气象观测和天气预报(METAR&TAF报告)。

可查询的气象台以黄色和红色小点在地图上表示。

将鼠标移到小点上方,可查看气象台名称。

然后点击查看天气观测和预报。

如需切换地图:点击带黑十字的绿色按钮放大地图;点击带横线的绿色按钮缩小地图;或者点击绿色箭头查看邻近地区的地图。


METAR-TAF: